Time;durP1;ratioP1;P1;durP2;ratioP2;P2;SDS_P1;SDS_P2;PMS_P1;PMS_P2;Temp;Humidity;BMP_temperature;BMP_pressure;BME280_temperature;BME280_humidity;BME280_pressure;Samples;Min_cycle;Max_cycle;Signal;HPM_P1;HPM_P2
2022/08/27 00:02:11;;;;;;;;;;;;;;;16.57;46.04;100091.38;5075578;28;1001;-56
2022/08/27 00:04:37;;;;;;;;;;;;;;;16.70;45.59;100092.63;5075948;28;1064;-56
2022/08/27 00:07:02;;;;;;;;;;;;;;;16.69;45.77;100101.97;5072345;28;977;-56
2022/08/27 00:09:28;;;;;;;;;;;;;;;16.56;46.22;100102.66;5070580;28;1917;-56
2022/08/27 00:11:54;;;;;;;;;;;;;;;16.63;45.97;100100.38;5080134;28;1147;-55
2022/08/27 00:14:19;;;;;;;;;;;;;;;16.59;45.94;100099.31;5079518;28;1013;-56
2022/08/27 00:16:45;;;;;;;;;;;;;;;16.60;45.78;100093.53;5079588;28;1183;-57
2022/08/27 00:19:10;;;;;;;;;;;;;;;16.60;45.66;100095.47;5077406;28;1009;-57
2022/08/27 00:21:36;;;;;;;;;;;;;;;16.65;45.61;100092.69;5074532;28;973;-57
2022/08/27 00:24:01;;;;;;;;;;;;;;;16.64;45.71;100096.53;5079774;28;973;-57
2022/08/27 00:26:27;;;;;;;;;;;;;;;16.62;45.68;100095.19;5079914;28;1040;-57
2022/08/27 00:28:52;;;;;;;;;;;;;;;16.62;45.83;100097.94;5079516;28;1135;-58
2022/08/27 00:31:17;;;;;;;;;;;;;;;16.64;45.73;100102.03;5072588;28;1979;-58
2022/08/27 00:33:43;;;;;;;;;;;;;;;16.60;45.65;100095.47;5061532;28;1095;-58
2022/08/27 00:36:09;;;;;;;;;;;;;;;17.59;46.48;100095.97;5079492;28;1036;-58
2022/08/27 00:38:35;;;;;;;;;;;;;;;16.93;47.51;100099.25;5079024;28;1004;-57
2022/08/27 00:41:00;;;;;;;;;;;;;;;16.88;47.01;100101.22;5079268;28;1060;-57
2022/08/27 00:43:32;;;;;;;;;;;;;;;16.86;46.88;100095.22;5074177;28;1107;-57
2022/08/27 00:46:03;;;;;;;;;;;;;;;16.88;46.51;100096.56;5075139;28;981;-57
2022/08/27 00:48:29;;;;;;;;;;;;;;;16.88;46.39;100101.22;5061407;28;982;-56
2022/08/27 00:50:54;;;;;;;;;;;;;;;16.83;46.20;100098.53;5078641;28;1902;-56
2022/08/27 00:53:22;;;;;;;;;;;;;;;16.87;45.91;100110.56;5061448;28;1159;-57
2022/08/27 00:55:53;;;;;;;;;;;;;;;16.79;46.02;100113.94;5073407;28;1029;-57
2022/08/27 00:58:22;;;;;;;;;;;;;;;16.71;45.96;100113.47;5064872;28;1056;-57
2022/08/27 01:00:47;;;;;;;;;;;;;;;16.86;45.69;100107.00;5073239;28;1025;-57
2022/08/27 01:03:13;;;;;;;;;;;;;;;16.72;45.69;100115.13;5076565;28;950;-56
2022/08/27 01:05:38;;;;;;;;;;;;;;;16.72;45.81;100109.63;5079139;28;1001;-57
2022/08/27 01:08:09;;;;;;;;;;;;;;;16.79;45.55;100116.69;5075179;28;1080;-57
2022/08/27 01:10:34;;;;;;;;;;;;;;;16.77;45.82;100114.25;5060560;28;1961;-56
2022/08/27 01:13:00;;;;;;;;;;;;;;;16.71;45.61;100105.25;5078545;28;977;-57
2022/08/27 01:15:26;;;;;;;;;;;;;;;16.76;45.69;100115.38;5078646;28;997;-56
2022/08/27 01:17:52;;;;;;;;;;;;;;;16.68;45.67;100113.25;5068202;28;1032;-56
2022/08/27 01:20:21;;;;;;;;;;;;;;;16.73;45.84;100111.28;5051660;28;1228;-56
2022/08/27 01:22:53;;;;;;;;;;;;;;;16.66;45.95;100116.28;5053816;28;1045;-56
2022/08/27 01:25:19;;;;;;;;;;;;;;;16.70;45.65;100116.50;5078461;28;922;-56
2022/08/27 01:27:45;;;;;;;;;;;;;;;16.70;45.86;100117.31;5078497;28;1008;-56
2022/08/27 01:30:11;;;;;;;;;;;;;;;16.72;45.79;100115.13;5058802;28;1978;-56
2022/08/27 01:32:37;;;;;;;;;;;;;;;16.66;45.89;100124.53;5075255;28;875;-56
2022/08/27 01:35:06;;;;;;;;;;;;;;;16.66;45.93;100119.03;5077920;28;1048;-56
2022/08/27 01:37:33;;;;;;;;;;;;;;;16.62;45.77;100111.66;5058025;28;1021;-56
2022/08/27 01:39:58;;;;;;;;;;;;;;;16.70;45.82;100117.31;5078467;28;1044;-56
2022/08/27 01:42:24;;;;;;;;;;;;;;;16.68;45.78;100119.56;5077796;28;1171;-56
2022/08/27 01:44:49;;;;;;;;;;;;;;;16.66;45.67;100118.19;5070049;28;827;-56
2022/08/27 01:47:15;;;;;;;;;;;;;;;17.31;47.21;100112.28;5077812;28;973;-56
2022/08/27 01:49:41;;;;;;;;;;;;;;;16.96;47.35;100111.59;5077974;28;1905;-56
2022/08/27 01:52:06;;;;;;;;;;;;;;;17.06;46.52;100114.22;5077912;28;1024;-56
2022/08/27 01:54:32;;;;;;;;;;;;;;;16.87;46.63;100113.31;5077817;28;1088;-56
2022/08/27 01:56:57;;;;;;;;;;;;;;;16.77;46.34;100116.97;5071184;28;855;-56
2022/08/27 01:59:22;;;;;;;;;;;;;;;16.75;46.08;100120.03;5077534;28;946;-57
2022/08/27 02:01:48;;;;;;;;;;;;;;;16.85;45.90;100118.28;5077848;28;981;-57
2022/08/27 02:04:13;;;;;;;;;;;;;;;16.75;45.74;100125.50;5071391;28;838;-56
2022/08/27 02:06:39;;;;;;;;;;;;;;;16.80;45.78;100121.06;5074831;28;1065;-57
2022/08/27 02:09:04;;;;;;;;;;;;;;;16.73;45.85;100122.25;5074404;28;867;-57
2022/08/27 02:11:30;;;;;;;;;;;;;;;16.79;45.68;100127.66;5077414;28;1961;-56
2022/08/27 02:13:55;;;;;;;;;;;;;;;16.73;45.71;100115.94;5077488;28;985;-56
2022/08/27 02:16:20;;;;;;;;;;;;;;;16.68;45.98;100116.81;5077530;28;965;-57
2022/08/27 02:18:46;;;;;;;;;;;;;;;16.70;45.67;100116.50;5077037;28;1104;-56
2022/08/27 02:21:13;;;;;;;;;;;;;;;16.70;45.75;100114.56;5077239;28;863;-56
2022/08/27 02:23:39;;;;;;;;;;;;;;;16.67;45.50;100117.91;5073278;28;1103;-56
2022/08/27 02:26:04;;;;;;;;;;;;;;;16.66;45.50;100119.03;5067453;28;1021;-55
2022/08/27 02:28:30;;;;;;;;;;;;;;;16.70;45.39;100117.31;5058890;28;971;-57
2022/08/27 02:30:55;;;;;;;;;;;;;;;16.65;45.68;100116.56;5077079;28;1906;-57
2022/08/27 02:33:21;;;;;;;;;;;;;;;16.65;45.72;100120.13;5076029;28;890;-57
2022/08/27 02:35:46;;;;;;;;;;;;;;;16.71;45.40;100129.13;5076911;28;1108;-55
2022/08/27 02:38:12;;;;;;;;;;;;;;;16.64;45.80;100128.66;5076797;28;1008;-56
2022/08/27 02:40:37;;;;;;;;;;;;;;;16.69;45.62;100131.34;5076862;28;1218;-56
2022/08/27 02:43:03;;;;;;;;;;;;;;;16.67;45.82;100123.41;5075946;28;996;-55
2022/08/27 02:45:28;;;;;;;;;;;;;;;16.62;45.76;100126.22;5070391;28;1030;-56
2022/08/27 02:47:53;;;;;;;;;;;;;;;16.60;45.50;100123.72;5076954;28;1112;-55
2022/08/27 02:50:19;;;;;;;;;;;;;;;16.65;45.54;100122.88;5076994;28;1955;-56
2022/08/27 02:52:44;;;;;;;;;;;;;;;16.62;45.49;100120.72;5077045;28;1017;-56
2022/08/27 02:55:10;;;;;;;;;;;;;;;16.64;45.44;100123.97;5076576;28;1071;-56
2022/08/27 02:57:35;;;;;;;;;;;;;;;16.71;45.55;100124.44;5076496;28;851;-56
2022/08/27 03:00:01;;;;;;;;;;;;;;;16.63;45.46;100133.31;5076624;28;1254;-55
2022/08/27 03:02:26;;;;;;;;;;;;;;;16.56;45.82;100117.22;5076442;28;957;-55
2022/08/27 03:04:52;;;;;;;;;;;;;;;16.68;45.63;100136.03;5072960;28;1005;-57
2022/08/27 03:07:18;;;;;;;;;;;;;;;16.55;45.73;100125.72;5074602;28;965;-57
2022/08/27 03:09:43;;;;;;;;;;;;;;;16.61;45.58;100132.81;5075970;28;1978;-57
2022/08/27 03:12:08;;;;;;;;;;;;;;;16.61;45.30;100130.06;5075949;28;1044;-57
2022/08/27 03:14:34;;;;;;;;;;;;;;;16.61;45.68;100135.53;5072808;28;1067;-56
2022/08/27 03:18:16;;;;;;;;;;;;;;;16.62;45.50;100137.19;5076380;28;985;-57
2022/08/27 03:19:45;;;;;;;;;;;;;;;16.54;45.58;100135.06;5060727;28;1250;-57
2022/08/27 03:22:11;;;;;;;;;;;;;;;16.54;45.39;100137.81;5068177;28;886;-57
2022/08/27 03:24:39;;;;;;;;;;;;;;;17.27;46.53;100145.00;5059725;28;1021;-57
2022/08/27 03:27:04;;;;;;;;;;;;;;;16.90;47.13;100143.78;5073654;28;1000;-56
2022/08/27 03:29:30;;;;;;;;;;;;;;;16.85;46.47;100148.50;5074980;28;1910;-56
2022/08/27 03:31:55;;;;;;;;;;;;;;;16.82;46.33;100151.81;5074265;28;1052;-56
2022/08/27 03:34:21;;;;;;;;;;;;;;;16.79;46.22;100149.63;5066881;28;1001;-57
2022/08/27 03:36:47;;;;;;;;;;;;;;;16.72;45.90;100159.03;5066905;28;1044;-56
2022/08/27 03:39:13;;;;;;;;;;;;;;;16.64;45.87;100156.91;5069699;28;1056;-56
2022/08/27 03:41:38;;;;;;;;;;;;;;;16.67;45.89;100148.09;5067854;28;1056;-56
2022/08/27 03:44:04;;;;;;;;;;;;;;;16.61;46.02;100152.00;5075760;28;1063;-54
2022/08/27 03:46:29;;;;;;;;;;;;;;;16.63;45.89;100152.53;5058076;28;1012;-49
2022/08/27 03:48:55;;;;;;;;;;;;;;;16.80;48.02;100159.50;5064231;28;1033;-55
2022/08/27 03:51:20;;;;;;;;;;;;;;;16.79;47.74;100161.44;5066994;28;1913;-58
2022/08/27 03:53:46;;;;;;;;;;;;;;;16.81;47.62;100156.47;5073293;28;1068;-56
2022/08/27 03:56:11;;;;;;;;;;;;;;;16.82;47.58;100158.13;5072446;28;1218;-56
2022/08/27 03:58:37;;;;;;;;;;;;;;;16.89;47.91;100157.81;5062906;28;1037;-56
2022/08/27 04:01:03;;;;;;;;;;;;;;;16.91;47.92;100156.41;5069674;28;1270;-56
2022/08/27 04:03:29;;;;;;;;;;;;;;;16.86;48.35;100158.38;5057234;28;1250;-56
2022/08/27 04:05:55;;;;;;;;;;;;;;;16.96;50.13;100158.28;5064529;28;969;-57
2022/08/27 04:08:21;;;;;;;;;;;;;;;17.12;50.87;100142.44;5065666;28;966;-57
2022/08/27 04:10:47;;;;;;;;;;;;;;;17.22;51.40;100138.75;5070639;28;1909;-44
2022/08/27 04:13:13;;;;;;;;;;;;;;;17.25;51.27;100139.00;5069008;28;1041;-45
2022/08/27 04:15:43;;;;;;;;;;;;;;;17.30;50.79;100137.31;5060665;28;985;-42
2022/08/27 04:18:08;;;;;;;;;;;;;;;17.25;50.41;100143.66;5061206;28;1012;-41
2022/08/27 04:20:34;;;;;;;;;;;;;;;17.24;50.59;100144.78;5071255;28;1032;-44
2022/08/27 04:22:59;;;;;;;;;;;;;;;17.37;50.15;100137.75;5069156;28;1133;-45
2022/08/27 04:25:25;;;;;;;;;;;;;;;17.33;50.00;100140.25;5073254;28;1132;-47
2022/08/27 04:27:50;;;;;;;;;;;;;;;17.38;49.95;100140.19;5075218;28;993;-44
2022/08/27 04:30:18;;;;;;;;;;;;;;;17.20;49.26;100141.00;5069649;28;1909;-46
2022/08/27 04:32:43;;;;;;;;;;;;;;;17.15;48.57;100139.09;5059658;28;3063;-47
2022/08/27 04:35:10;;;;;;;;;;;;;;;17.12;47.98;100145.19;5064452;28;2046;-48
2022/08/27 04:37:36;;;;;;;;;;;;;;;17.08;47.75;100139.47;5062507;28;2054;-50
2022/08/27 04:40:01;;;;;;;;;;;;;;;17.10;47.33;100140.00;5063637;28;1828;-52
2022/08/27 04:42:26;;;;;;;;;;;;;;;17.07;47.02;100142.53;5063388;28;1851;-50
2022/08/27 04:44:52;;;;;;;;;;;;;;;17.12;46.97;100144.38;5069082;28;2360;-52
2022/08/27 04:47:17;;;;;;;;;;;;;;;17.03;46.96;100158.75;5066661;28;2163;-54
2022/08/27 04:49:43;;;;;;;;;;;;;;;16.94;46.83;100149.50;5063499;28;1921;-51
2022/08/27 04:52:08;;;;;;;;;;;;;;;17.06;46.54;100157.34;5062118;28;1563;-49
2022/08/27 04:54:34;;;;;;;;;;;;;;;16.95;46.65;100153.09;5057010;28;1130;-48
2022/08/27 04:57:01;;;;;;;;;;;;;;;16.99;46.43;100146.72;5063024;28;1039;-46
2022/08/27 04:59:26;;;;;;;;;;;;;;;16.93;46.37;100151.44;5058976;28;1238;-50
2022/08/27 05:01:52;;;;;;;;;;;;;;;16.94;46.41;100155.00;5076615;28;1096;-48
2022/08/27 05:04:17;;;;;;;;;;;;;;;17.01;46.09;100147.25;5066757;28;986;-49
2022/08/27 05:06:44;;;;;;;;;;;;;;;16.90;46.34;100156.69;5064721;28;1156;-47
2022/08/27 05:09:10;;;;;;;;;;;;;;;16.90;46.12;100156.69;5072109;28;1028;-47
2022/08/27 05:11:36;;;;;;;;;;;;;;;16.91;46.16;100155.59;5069018;28;1917;-51
2022/08/27 05:14:02;;;;;;;;;;;;;;;16.85;46.53;100163.03;5073975;28;1021;-51
2022/08/27 05:16:28;;;;;;;;;;;;;;;16.84;46.55;100172.38;5075086;28;2257;-55
2022/08/27 05:18:53;;;;;;;;;;;;;;;16.98;46.93;100167.03;5076251;28;973;-54
2022/08/27 05:21:26;;;;;;;;;;;;;;;16.97;47.43;100165.44;5072335;28;1088;-54
2022/08/27 05:23:53;;;;;;;;;;;;;;;17.78;48.90;100173.78;5053209;28;1132;-54
2022/08/27 05:26:18;;;;;;;;;;;;;;;15.92;55.02;100171.19;5058804;28;1024;-55
2022/08/27 05:28:44;;;;;;;;;;;;;;;16.69;55.11;100164.28;5070023;28;1065;-53
2022/08/27 05:31:10;;;;;;;;;;;;;;;18.75;52.80;100164.31;5064619;28;1905;-53
2022/08/27 05:33:37;;;;;;;;;;;;;;;14.56;62.26;100165.56;5074120;28;1005;-56
2022/08/27 05:36:03;;;;;;;;;;;;;;;16.57;53.32;100168.22;5068140;28;1099;-48
2022/08/27 05:38:29;;;;;;;;;;;;;;;16.90;50.71;100173.16;5051129;28;1104;-51
2022/08/27 05:41:07;;;;;;;;;;;;;;;17.01;49.50;100171.13;5062474;28;1401;-48
2022/08/27 05:43:33;;;;;;;;;;;;;;;17.10;49.49;100178.44;5073582;28;1041;-57
2022/08/27 05:46:01;;;;;;;;;;;;;;;18.07;48.66;100177.50;5064450;28;1017;-54
2022/08/27 05:48:26;;;;;;;;;;;;;;;17.62;49.97;100180.59;5063656;28;2598;-53
2022/08/27 05:50:52;;;;;;;;;;;;;;;17.47;51.03;100178.84;5069559;28;1898;-52
2022/08/27 05:53:17;;;;;;;;;;;;;;;17.42;51.60;100182.47;5062740;28;1424;-55
2022/08/27 05:55:43;;;;;;;;;;;;;;;17.34;51.94;100180.38;5066835;28;977;-53
2022/08/27 06:01:03;;;;;;;;;;;;;;;17.28;52.11;100187.88;5070653;28;1148;-55
2022/08/27 06:01:04;;;;;;;;;;;;;;;17.24;52.55;100186.81;5068079;28;945;-52
2022/08/27 06:03:30;;;;;;;;;;;;;;;17.19;52.87;100188.81;5058684;28;1194;-54
2022/08/27 06:06:00;;;;;;;;;;;;;;;17.13;53.20;100196.28;5072571;28;1020;-52
2022/08/27 06:08:25;;;;;;;;;;;;;;;17.10;53.28;100197.69;5068731;28;1119;-55
2022/08/27 06:10:51;;;;;;;;;;;;;;;17.10;53.56;100197.69;5070504;28;1902;-54
2022/08/27 06:13:16;;;;;;;;;;;;;;;17.02;53.59;100203.81;5072298;28;1012;-55
2022/08/27 06:15:42;;;;;;;;;;;;;;;17.05;53.91;100205.16;5075560;28;1072;-55
2022/08/27 06:18:07;;;;;;;;;;;;;;;17.03;53.90;100199.97;5075075;28;2357;-53
2022/08/27 06:20:33;;;;;;;;;;;;;;;16.97;53.98;100203.88;5063738;28;1029;-55
2022/08/27 06:22:59;;;;;;;;;;;;;;;16.99;54.20;100207.13;5064752;28;862;-47
2022/08/27 06:25:24;;;;;;;;;;;;;;;16.89;54.46;100208.06;5065202;28;974;-55
2022/08/27 06:27:50;;;;;;;;;;;;;;;16.85;54.63;100209.72;5065373;28;1060;-53
2022/08/27 06:30:15;;;;;;;;;;;;;;;16.86;54.73;100207.81;5066474;28;1980;-52
2022/08/27 06:32:41;;;;;;;;;;;;;;;16.83;55.01;100211.09;5071389;28;1067;-51
2022/08/27 06:35:06;;;;;;;;;;;;;;;16.83;54.82;100213.84;5063089;28;906;-55
2022/08/27 06:37:32;;;;;;;;;;;;;;;16.82;54.91;100206.75;5070776;28;1145;-54
2022/08/27 06:39:58;;;;;;;;;;;;;;;16.78;55.33;100220.22;5067338;28;1009;-52
2022/08/27 06:42:23;;;;;;;;;;;;;;;16.79;55.08;100218.28;5074631;28;1214;-53
2022/08/27 06:44:53;;;;;;;;;;;;;;;16.79;55.58;100223.75;5073627;28;1004;-56
2022/08/27 06:47:18;;;;;;;;;;;;;;;16.79;55.50;100213.63;5060230;28;2346;-54
2022/08/27 06:49:44;;;;;;;;;;;;;;;16.78;55.66;100220.22;5071602;28;1898;-45
2022/08/27 06:52:09;;;;;;;;;;;;;;;16.74;55.57;100222.69;5075222;28;977;-56
2022/08/27 06:54:34;;;;;;;;;;;;;;;16.77;55.40;100221.31;5075494;28;1222;-54
2022/08/27 06:57:00;;;;;;;;;;;;;;;16.75;55.70;100218.84;5069883;28;1008;-47
2022/08/27 06:59:26;;;;;;;;;;;;;;;16.73;55.76;100226.59;5075125;28;904;-54
2022/08/27 07:01:51;;;;;;;;;;;;;;;16.73;55.83;100226.59;5070307;28;989;-51
2022/08/27 07:04:19;;;;;;;;;;;;;;;16.72;55.83;100230.41;5064779;28;993;-54
2022/08/27 07:06:44;;;;;;;;;;;;;;;16.68;55.79;100229.34;5069308;28;1151;-53
2022/08/27 07:09:10;;;;;;;;;;;;;;;16.71;55.92;100228.78;5073646;28;988;-55
2022/08/27 07:11:37;;;;;;;;;;;;;;;16.68;55.90;100226.63;5062563;28;1910;-56
2022/08/27 07:14:02;;;;;;;;;;;;;;;16.67;56.61;100227.72;5074717;28;1052;-57
2022/08/27 07:16:28;;;;;;;;;;;;;;;16.71;56.37;100234.28;5055744;28;2307;-54
2022/08/27 07:18:54;;;;;;;;;;;;;;;16.67;56.50;100233.19;5063033;28;966;-52
2022/08/27 07:21:20;;;;;;;;;;;;;;;16.67;56.65;100235.13;5063201;28;1084;-44
2022/08/27 07:23:45;;;;;;;;;;;;;;;16.67;56.48;100235.94;5061866;28;1174;-43
2022/08/27 07:26:11;;;;;;;;;;;;;;;16.65;56.62;100232.69;5066774;28;1079;-46
2022/08/27 07:28:37;;;;;;;;;;;;;;;16.64;56.65;100233.78;5057102;28;1081;-47
2022/08/27 07:31:03;;;;;;;;;;;;;;;16.63;56.32;100229.38;5071807;28;1975;-46
2022/08/27 07:33:29;;;;;;;;;;;;;;;16.64;56.44;100228.28;5070776;28;1017;-47
2022/08/27 07:35:54;;;;;;;;;;;;;;;16.63;56.22;100229.38;5062455;28;957;-43
2022/08/27 07:38:19;;;;;;;;;;;;;;;16.66;56.50;100226.09;5067632;28;993;-45
2022/08/27 07:40:45;;;;;;;;;;;;;;;16.68;56.07;100229.34;5074943;28;1190;-45
2022/08/27 07:45:55;;;;;;;;;;;;;;;16.62;56.52;100225.03;5061697;28;1146;-48
2022/08/27 07:48:22;;;;;;;;;;;;;;;16.69;56.59;100220.03;5072043;28;1964;-43
2022/08/27 07:50:48;;;;;;;;;;;;;;;16.64;56.58;100217.31;5062349;28;1902;-49
2022/08/27 07:53:13;;;;;;;;;;;;;;;16.66;56.56;100220.59;5056477;28;977;-45
2022/08/27 07:55:38;;;;;;;;;;;;;;;16.61;56.67;100217.91;5063505;28;1089;-45
2022/08/27 07:58:04;;;;;;;;;;;;;;;16.64;56.49;100228.28;5070944;28;994;-46
2022/08/27 08:00:30;;;;;;;;;;;;;;;16.65;56.61;100220.88;5044336;28;1033;-45
2022/08/27 08:02:55;;;;;;;;;;;;;;;16.62;56.51;100225.03;5064365;28;992;-45
2022/08/27 08:05:21;;;;;;;;;;;;;;;16.62;56.81;100225.03;5070629;28;985;-45
2022/08/27 08:07:46;;;;;;;;;;;;;;;16.62;56.80;100225.03;5073095;28;1048;-41
2022/08/27 08:10:12;;;;;;;;;;;;;;;16.63;56.70;100226.66;5072022;28;1983;-42
2022/08/27 08:12:37;;;;;;;;;;;;;;;16.66;56.65;100223.34;5068859;28;1033;-43
2022/08/27 08:15:05;;;;;;;;;;;;;;;16.62;56.57;100221.44;5072054;28;1120;-46
2022/08/27 08:17:31;;;;;;;;;;;;;;;16.62;56.67;100225.03;5071718;28;1935;-47
2022/08/27 08:19:57;;;;;;;;;;;;;;;16.63;56.89;100221.16;5060696;28;1017;-47
2022/08/27 08:22:22;;;;;;;;;;;;;;;16.64;56.76;100217.31;5067168;28;1072;-45
2022/08/27 08:24:48;;;;;;;;;;;;;;;16.67;56.77;100222.22;5068787;28;982;-49
2022/08/27 08:27:13;;;;;;;;;;;;;;;16.69;56.52;100225.50;5066469;28;1092;-49
2022/08/27 08:29:39;;;;;;;;;;;;;;;16.66;56.80;100220.59;5064311;28;1910;-49
2022/08/27 08:32:05;;;;;;;;;;;;;;;16.68;56.64;100217.56;5072672;28;1088;-51
2022/08/27 08:34:30;;;;;;;;;;;;;;;16.66;56.73;100220.59;5043243;28;1219;-42
2022/08/27 08:36:56;;;;;;;;;;;;;;;16.69;57.08;100219.19;5073829;28;1081;-46
2022/08/27 08:39:22;;;;;;;;;;;;;;;16.68;56.74;100217.56;5078356;28;909;-43
2022/08/27 08:41:49;;;;;;;;;;;;;;;16.69;56.81;100213.69;5066793;28;962;-46
2022/08/27 08:44:23;;;;;;;;;;;;;;;16.65;56.89;100213.47;5053906;28;1215;-46
2022/08/27 08:46:52;;;;;;;;;;;;;;;16.64;57.03;100214.56;5076767;28;2178;-48
2022/08/27 08:49:36;;;;;;;;;;;;;;;16.69;56.91;100209.03;5040987;28;1013;-46
2022/08/27 08:52:06;;;;;;;;;;;;;;;16.69;57.07;100213.69;5052447;28;1001;-44
2022/08/27 08:54:32;;;;;;;;;;;;;;;16.66;56.87;100211.53;5053509;28;1208;-51
2022/08/27 08:56:58;;;;;;;;;;;;;;;16.69;57.06;100214.53;5068559;28;1047;-49
2022/08/27 08:59:28;;;;;;;;;;;;;;;16.67;57.08;100213.19;5065532;28;994;-43
2022/08/27 09:01:54;;;;;;;;;;;;;;;16.69;56.88;100214.53;5056122;28;1052;-49
2022/08/27 09:04:19;;;;;;;;;;;;;;;16.67;57.17;100211.25;5076332;28;1076;-44
2022/08/27 09:06:54;;;;;;;;;;;;;;;16.69;57.16;100208.19;5075757;28;1187;-46
2022/08/27 09:09:35;;;;;;;;;;;;;;;16.67;57.16;100205.75;5077845;28;1119;-49
2022/08/27 09:12:02;;;;;;;;;;;;;;;16.67;57.06;100213.19;5072381;28;855;-47
2022/08/27 09:14:37;;;;;;;;;;;;;;;16.70;57.09;100218.09;5046964;28;1057;-46
2022/08/27 09:17:02;;;;;;;;;;;;;;;16.70;57.06;100216.16;5072245;28;2333;-50
2022/08/27 09:19:28;;;;;;;;;;;;;;;16.74;56.90;100211.72;5073507;28;1112;-45
2022/08/27 09:22:23;;;;;;;;;;;;;;;16.73;57.04;100220.25;5061118;28;1139;-48
2022/08/27 09:24:54;;;;;;;;;;;;;;;16.71;57.07;100217.78;4968995;28;1133;-48
2022/08/27 09:27:20;;;;;;;;;;;;;;;16.76;57.37;100215.00;5051651;28;1179;-44
2022/08/27 09:29:46;;;;;;;;;;;;;;;16.71;57.59;100215.06;5050948;28;1911;-43
2022/08/27 09:32:12;;;;;;;;;;;;;;;16.71;57.63;100212.31;5063827;28;1155;-46
2022/08/27 09:34:41;;;;;;;;;;;;;;;16.69;57.39;100209.03;5067130;28;1432;-47
2022/08/27 09:37:10;;;;;;;;;;;;;;;16.70;57.23;100218.91;5062843;28;997;-50
2022/08/27 09:39:46;;;;;;;;;;;;;;;16.75;57.33;100212.56;5058832;28;1069;-47
2022/08/27 09:42:23;;;;;;;;;;;;;;;16.73;57.26;100212.84;5067133;28;1025;-51
2022/08/27 09:44:49;;;;;;;;;;;;;;;16.73;57.29;100223.00;5073364;28;1217;-44
2022/08/27 09:47:14;;;;;;;;;;;;;;;16.73;57.04;100210.09;5050931;28;2356;-52
2022/08/27 09:49:40;;;;;;;;;;;;;;;16.72;57.28;100213.16;5067355;28;1967;-51
2022/08/27 09:52:05;;;;;;;;;;;;;;;16.75;57.31;100202.38;5060312;28;929;-48
2022/08/27 09:54:36;;;;;;;;;;;;;;;16.71;57.12;100206.81;5067999;28;1091;-47
2022/08/27 09:57:01;;;;;;;;;;;;;;;16.76;57.10;100201.28;5069922;28;1275;-49
2022/08/27 09:59:30;;;;;;;;;;;;;;;16.77;57.18;100210.34;5072620;28;1056;-47
2022/08/27 10:02:01;;;;;;;;;;;;;;;16.80;57.37;100195.22;5075985;28;981;-51
2022/08/27 10:04:34;;;;;;;;;;;;;;;16.77;57.35;100197.44;5077161;28;1095;-46
2022/08/27 10:07:07;;;;;;;;;;;;;;;16.79;57.44;100197.16;5077129;28;1052;-51
2022/08/27 10:09:34;;;;;;;;;;;;;;;16.82;57.49;100195.75;5047510;28;1368;-44
2022/08/27 10:12:02;;;;;;;;;;;;;;;16.79;57.52;100199.06;5059733;28;1918;-46
2022/08/27 10:14:36;;;;;;;;;;;;;;;16.79;57.38;100199.91;5059701;28;1053;-45
2022/08/27 10:17:11;;;;;;;;;;;;;;;16.79;57.38;100199.91;5054168;28;1836;-52
2022/08/27 10:19:49;;;;;;;;;;;;;;;16.79;57.52;100207.28;5055792;28;1053;-53
2022/08/27 10:22:14;;;;;;;;;;;;;;;16.81;57.37;100205.91;5061956;28;992;-45
2022/08/27 10:24:39;;;;;;;;;;;;;;;16.83;57.46;100203.69;5064705;28;905;-47
2022/08/27 10:27:11;;;;;;;;;;;;;;;16.82;57.28;100206.75;5073033;28;1100;-45
2022/08/27 10:29:37;;;;;;;;;;;;;;;16.80;57.61;100200.69;5058071;28;1077;-46
2022/08/27 10:32:04;;;;;;;;;;;;;;;16.85;57.26;100195.97;5060756;28;1913;-51
2022/08/27 10:34:41;;;;;;;;;;;;;;;16.83;57.38;100200.97;5063930;28;1737;-48
2022/08/27 10:37:20;;;;;;;;;;;;;;;16.80;57.37;100200.69;5047740;28;1080;-51
2022/08/27 10:39:45;;;;;;;;;;;;;;;16.84;57.42;100193.53;5055191;28;1013;-50
2022/08/27 10:42:14;;;;;;;;;;;;;;;16.80;57.35;100208.94;5066175;28;1236;-49
2022/08/27 10:45:18;;;;;;;;;;;;;;;16.80;57.57;100203.44;5059303;28;1029;-47
2022/08/27 10:47:48;;;;;;;;;;;;;;;16.83;57.62;100203.69;4955773;29;2328;-53
2022/08/27 10:50:19;;;;;;;;;;;;;;;16.86;57.50;100199.56;4971978;28;1906;-51
2022/08/27 10:52:48;;;;;;;;;;;;;;;16.83;57.55;100198.22;5010121;28;1192;-50
2022/08/27 10:55:25;;;;;;;;;;;;;;;16.83;57.55;100194.63;5045454;28;1298;-49
2022/08/27 10:58:09;;;;;;;;;;;;;;;16.83;57.83;100200.13;5039685;28;971;-49
2022/08/27 11:00:41;;;;;;;;;;;;;;;16.88;57.42;100200.06;5066223;28;997;-49
2022/08/27 11:03:10;;;;;;;;;;;;;;;16.84;57.63;100196.28;5061242;28;1294;-48
2022/08/27 11:05:36;;;;;;;;;;;;;;;16.84;57.77;100199.81;5042410;28;1199;-50
2022/08/27 11:08:07;;;;;;;;;;;;;;;16.84;57.56;100199.00;5060289;28;1120;-50
2022/08/27 11:10:34;;;;;;;;;;;;;;;16.84;57.59;100201.75;5072197;28;1902;-52
2022/08/27 11:13:03;;;;;;;;;;;;;;;16.85;57.74;100192.44;5056712;28;890;-52
2022/08/27 11:15:32;;;;;;;;;;;;;;;16.88;57.38;100195.44;5056936;28;1119;-51
2022/08/27 11:18:10;;;;;;;;;;;;;;;16.89;57.66;100190.78;5051310;28;2421;-53
2022/08/27 11:20:38;;;;;;;;;;;;;;;16.85;57.59;100192.44;5048714;28;993;-47
2022/08/27 11:23:27;;;;;;;;;;;;;;;16.86;57.55;100194.06;5065215;28;1075;-46
2022/08/27 11:25:54;;;;;;;;;;;;;;;16.86;57.59;100188.56;5060434;28;1215;-48
2022/08/27 11:28:21;;;;;;;;;;;;;;;16.87;57.60;100198.44;5067289;28;1226;-50
2022/08/27 11:31:00;;;;;;;;;;;;;;;16.86;57.59;100196.81;5072326;28;1963;-48
2022/08/27 11:33:34;;;;;;;;;;;;;;;16.86;57.60;100196.81;5045018;28;1124;-49
2022/08/27 11:36:18;;;;;;;;;;;;;;;16.90;57.41;100198.72;5071105;28;986;-48
2022/08/27 11:38:47;;;;;;;;;;;;;;;16.83;57.78;100197.38;5071705;28;1068;-49
2022/08/27 11:41:13;;;;;;;;;;;;;;;16.84;57.42;100188.03;5043022;28;1079;-50
2022/08/27 11:43:39;;;;;;;;;;;;;;;16.84;57.50;100188.03;5072882;28;1059;-45
2022/08/27 11:46:05;;;;;;;;;;;;;;;16.85;57.47;100186.94;5064557;28;1506;-46
2022/08/27 11:48:32;;;;;;;;;;;;;;;16.83;57.49;100181.72;5069172;28;2184;-46
2022/08/27 11:51:01;;;;;;;;;;;;;;;16.82;57.61;100182.84;5050689;28;1959;-48
2022/08/27 11:53:28;;;;;;;;;;;;;;;16.84;57.51;100188.84;5067810;28;1013;-47
2022/08/27 11:55:54;;;;;;;;;;;;;;;16.84;57.46;100183.34;5058188;28;1313;-50
2022/08/27 11:58:20;;;;;;;;;;;;;;;16.85;57.43;100185.00;5046881;28;1080;-52
2022/08/27 12:00:47;;;;;;;;;;;;;;;16.85;57.59;100178.69;5068060;28;997;-53
2022/08/27 12:03:18;;;;;;;;;;;;;;;16.88;57.43;100178.09;5054214;28;1112;-52
2022/08/27 12:05:44;;;;;;;;;;;;;;;16.85;57.73;100184.19;5064679;28;1016;-52
2022/08/27 12:08:12;;;;;;;;;;;;;;;16.86;57.60;100177.59;5077623;28;1116;-52
2022/08/27 12:10:47;;;;;;;;;;;;;;;16.86;57.68;100185.84;5073316;28;1909;-51
2022/08/27 12:13:16;;;;;;;;;;;;;;;16.86;57.79;100170.16;5049219;28;1064;-50
2022/08/27 12:15:41;;;;;;;;;;;;;;;16.87;57.65;100176.47;5050515;28;1088;-50
2022/08/27 12:18:33;;;;;;;;;;;;;;;16.89;57.86;100186.09;5070173;28;2329;-48
2022/08/27 12:21:17;;;;;;;;;;;;;;;16.89;57.92;100191.56;5053549;28;1081;-46
2022/08/27 12:23:52;;;;;;;;;;;;;;;16.88;57.73;100189.94;5064431;28;1061;-46
2022/08/27 12:26:20;;;;;;;;;;;;;;;16.89;57.57;100186.09;5076627;28;977;-50
2022/08/27 12:28:45;;;;;;;;;;;;;;;16.87;58.03;100184.69;5059519;28;1065;-44
2022/08/27 12:31:15;;;;;;;;;;;;;;;16.88;58.01;100192.69;5078139;28;1977;-46
2022/08/27 12:33:41;;;;;;;;;;;;;;;16.87;58.07;100188.28;5073724;28;1151;-46
2022/08/27 12:36:08;;;;;;;;;;;;;;;16.88;58.00;100189.09;5072107;28;1017;-49
2022/08/27 12:38:41;;;;;;;;;;;;;;;16.88;58.00;100189.09;5060706;28;1044;-43
2022/08/27 12:41:10;;;;;;;;;;;;;;;16.88;57.85;100189.94;5056619;28;1029;-49
2022/08/27 12:43:42;;;;;;;;;;;;;;;16.89;57.77;100196.25;5075053;28;1060;-46
2022/08/27 12:46:12;;;;;;;;;;;;;;;16.88;57.77;100202.81;5066583;28;1326;-47
2022/08/27 12:48:48;;;;;;;;;;;;;;;16.89;57.85;100190.78;5075963;28;2574;-45
2022/08/27 12:51:32;;;;;;;;;;;;;;;16.86;57.88;100194.06;5045132;28;1901;-51
2022/08/27 12:54:24;;;;;;;;;;;;;;;16.89;57.69;100196.25;5070830;28;1064;-47